Time;durP1;ratioP1;P1;durP2;ratioP2;P2;SDS_P1;SDS_P2;PMS_P1;PMS_P2;Temp;Humidity;BMP_temperature;BMP_pressure;BME280_temperature;BME280_humidity;BME280_pressure;Samples;Min_cycle;Max_cycle;Signal;HPM_P1;HPM_P2
2020/12/11 00:00:47;;;;;;;11.63;7.55;;;;;;;-0.61;91.38;92381.84;1853751;77;21189;-78
2020/12/11 00:03:16;;;;;;;16.82;9.03;;;;;;;-0.56;91.31;92384.83;1872281;75;21142;-78
2020/12/11 00:05:44;;;;;;;43.83;20.82;;;;;;;-0.55;91.17;92386.37;1886537;75;21038;-78
2020/12/11 00:08:13;;;;;;;55.48;26.17;;;;;;;-0.56;91.12;92382.16;1870618;76;21043;-79
2020/12/11 00:10:44;;;;;;;45.60;25.60;;;;;;;-0.54;91.10;92379.33;1878400;76;21024;-78
2020/12/11 00:13:13;;;;;;;43.55;23.07;;;;;;;-0.51;91.12;92377.86;1798799;77;21715;-79
2020/12/11 00:15:41;;;;;;;51.05;28.60;;;;;;;-0.48;91.09;92381.73;1870138;75;21175;-79
2020/12/11 00:18:09;;;;;;;35.73;21.00;;;;;;;-0.47;90.96;92385.95;1892289;75;21108;-79
2020/12/11 00:20:37;;;;;;;35.60;22.45;;;;;;;-0.48;90.95;92379.84;1858803;76;21577;-79
2020/12/11 00:23:05;;;;;;;36.00;21.60;;;;;;;-0.47;91.04;92377.94;1816394;79;21592;-79
2020/12/11 00:25:35;;;;;;;32.13;18.23;;;;;;;-0.47;91.08;92378.70;1886240;76;22094;-79
2020/12/11 00:28:03;;;;;;;26.80;16.75;;;;;;;-0.45;91.10;92377.81;1891551;75;21046;-79
2020/12/11 00:30:31;;;;;;;21.42;13.70;;;;;;;-0.42;91.09;92374.98;1874351;75;21162;-79
2020/12/11 00:32:59;;;;;;;17.70;10.60;;;;;;;-0.39;91.05;92376.95;1858733;76;21224;-79
2020/12/11 00:35:27;;;;;;;54.38;26.60;;;;;;;-0.38;91.00;92372.58;1868864;76;21113;-79
2020/12/11 00:37:57;;;;;;;36.70;21.52;;;;;;;-0.40;90.86;92377.52;1876751;76;22903;-79
2020/12/11 00:40:25;;;;;;;132.65;55.58;;;;;;;-0.42;90.98;92375.75;1858080;76;21177;-79
2020/12/11 00:42:55;;;;;;;196.12;77.67;;;;;;;-0.42;91.10;92376.31;1850078;76;21058;-79
2020/12/11 00:45:23;;;;;;;151.55;62.17;;;;;;;-0.39;91.14;92375.61;1825518;77;21033;-79
2020/12/11 00:47:51;;;;;;;126.58;57.23;;;;;;;-0.39;91.23;92372.37;1846009;77;21681;-78
2020/12/11 00:50:20;;;;;;;83.67;39.55;;;;;;;-0.36;91.26;92374.35;1838576;78;21200;-79
2020/12/11 00:52:49;;;;;;;96.72;45.35;;;;;;;-0.35;91.20;92370.55;1870271;76;21119;-79
2020/12/11 00:55:17;;;;;;;119.70;57.13;;;;;;;-0.35;91.28;92371.11;1860757;76;21182;-79
2020/12/11 00:57:46;;;;;;;134.40;57.03;;;;;;;-0.37;91.25;92366.14;1875977;75;21161;-79
2020/12/11 01:00:15;;;;;;;133.25;57.73;;;;;;;-0.38;91.32;92367.80;1839600;77;21060;-78
2020/12/11 01:02:47;;;;;;;98.27;50.12;;;;;;;-0.38;91.30;92370.47;1840177;75;21460;-79
2020/12/11 01:05:16;;;;;;;65.50;36.58;;;;;;;-0.40;91.35;92369.50;1817931;79;21106;-79
2020/12/11 01:07:44;;;;;;;48.38;27.93;;;;;;;-0.39;91.54;92361.69;1815053;77;21132;-79
2020/12/11 01:10:12;;;;;;;64.25;33.13;;;;;;;-0.34;91.62;92371.31;1870873;75;21038;-79
2020/12/11 01:12:40;;;;;;;62.58;32.73;;;;;;;-0.29;91.62;92365.14;1882734;75;21035;-78
2020/12/11 01:15:08;;;;;;;98.12;47.30;;;;;;;-0.27;91.61;92364.78;1864785;76;22064;-80
2020/12/11 01:17:37;;;;;;;78.15;38.65;;;;;;;-0.25;91.62;92367.89;1840112;78;21113;-80
2020/12/11 01:20:06;;;;;;;77.67;39.38;;;;;;;-0.28;91.50;92369.92;1810042;79;21050;-79
2020/12/11 01:22:34;;;;;;;61.10;36.30;;;;;;;-0.32;91.62;92366.41;1852847;77;21496;-79
2020/12/11 01:25:02;;;;;;;78.10;42.13;;;;;;;-0.38;91.64;92363.23;1854845;77;21038;-80
2020/12/11 01:27:30;;;;;;;68.20;39.20;;;;;;;-0.41;91.76;92363.95;1852990;75;22064;-79
2020/12/11 01:29:58;;;;;;;67.75;38.70;;;;;;;-0.44;91.86;92357.20;1861463;77;21100;-79
2020/12/11 01:32:26;;;;;;;67.70;39.00;;;;;;;-0.44;91.97;92359.88;1832010;78;21181;-79
2020/12/11 01:34:55;;;;;;;64.30;38.92;;;;;;;-0.42;92.02;92357.05;1839283;78;21135;-78
2020/12/11 01:37:23;;;;;;;68.00;37.70;;;;;;;-0.42;92.01;92354.38;1852997;77;21040;-78
2020/12/11 01:39:51;;;;;;;69.82;40.30;;;;;;;-0.41;91.97;92349.27;1885893;75;21609;-78
2020/12/11 01:42:19;;;;;;;96.90;50.80;;;;;;;-0.44;92.02;92348.63;1907563;75;21602;-79
2020/12/11 01:44:52;;;;;;;71.15;40.25;;;;;;;-0.44;92.16;92348.63;1907955;75;21527;-79
2020/12/11 01:47:21;;;;;;;87.80;47.93;;;;;;;-0.43;92.32;92339.48;1798104;79;21063;-79
2020/12/11 01:49:51;;;;;;;69.35;39.03;;;;;;;-0.44;92.25;92333.94;1853498;77;21061;-79
2020/12/11 01:52:19;;;;;;;78.55;42.75;;;;;;;-0.48;92.25;92328.33;1848577;77;22197;-79
2020/12/11 01:54:47;;;;;;;86.30;45.25;;;;;;;-0.51;92.38;92327.13;1858816;77;21125;-79
2020/12/11 01:57:34;;;;;;;77.40;42.93;;;;;;;-0.52;92.46;92325.59;1867409;75;21640;-79
2020/12/11 02:00:05;;;;;;;65.60;38.40;;;;;;;-0.52;92.45;92325.02;1889136;74;21028;-79
2020/12/11 02:02:36;;;;;;;83.30;43.50;;;;;;;-0.54;92.41;92322.48;1870303;76;21142;-79
2020/12/11 02:05:07;;;;;;;57.85;33.42;;;;;;;-0.54;92.48;92322.48;1907498;75;22224;-79
2020/12/11 02:07:38;;;;;;;57.48;32.63;;;;;;;-0.56;92.53;92318.07;1861418;75;21176;-78
2020/12/11 02:10:10;;;;;;;58.50;31.40;;;;;;;-0.51;92.87;92324.45;1875245;75;21495;-78
2020/12/11 02:12:38;;;;;;;49.60;32.10;;;;;;;-0.47;92.70;92322.62;1892757;74;21138;-78
2020/12/11 02:15:06;;;;;;;47.33;30.35;;;;;;;-0.53;92.44;92312.00;1838862;75;21632;-78
2020/12/11 02:17:36;;;;;;;55.45;31.95;;;;;;;-0.59;92.46;92310.19;1895101;75;21449;-78
2020/12/11 02:20:05;;;;;;;49.88;29.72;;;;;;;-0.59;92.78;92317.43;1871878;76;21135;-78
2020/12/11 02:22:33;;;;;;;53.58;31.15;;;;;;;-0.57;92.95;92309.83;1884642;75;21531;-78
2020/12/11 02:25:03;;;;;;;48.20;29.52;;;;;;;-0.61;92.87;92308.42;1882759;75;21138;-78
2020/12/11 02:27:31;;;;;;;51.73;28.90;;;;;;;-0.59;93.15;92312.09;1816741;77;21173;-78
2020/12/11 02:29:59;;;;;;;41.08;24.43;;;;;;;-0.56;93.32;92303.38;1829615;78;21181;-78
2020/12/11 02:32:28;;;;;;;33.78;20.17;;;;;;;-0.54;93.15;92299.78;1811400;79;21207;-78
2020/12/11 02:34:56;;;;;;;71.53;39.27;;;;;;;-0.54;93.18;92297.11;1831426;76;21620;-78
2020/12/11 02:37:25;;;;;;;133.45;59.83;;;;;;;-0.52;93.17;92299.66;1869844;75;21554;-78
2020/12/11 02:39:53;;;;;;;222.10;86.02;;;;;;;-0.50;93.18;92305.39;1894764;75;21121;-78
2020/12/11 02:42:21;;;;;;;134.03;59.83;;;;;;;-0.44;93.19;92303.80;1888843;76;22067;-78
2020/12/11 02:44:49;;;;;;;91.45;48.42;;;;;;;-0.41;93.04;92305.20;1876612;76;21132;-80
2020/12/11 02:47:17;;;;;;;82.33;39.38;;;;;;;-0.37;92.88;92295.34;1872396;75;21556;-79
2020/12/11 02:49:46;;;;;;;49.40;26.95;;;;;;;-0.36;92.61;92298.79;1872113;75;21498;-78
2020/12/11 02:52:14;;;;;;;62.33;32.53;;;;;;;-0.37;92.62;92305.27;1879795;75;21575;-78
2020/12/11 02:54:42;;;;;;;47.67;28.67;;;;;;;-0.37;92.68;92308.70;1868247;75;21237;-78
2020/12/11 02:57:11;;;;;;;;;;;;;;;;;;;;;
2020/12/11 02:59:40;;;;;;;58.35;35.75;;;;;;;-0.39;92.45;92308.27;1819148;78;21034;-78
2020/12/11 03:02:08;;;;;;;52.40;31.60;;;;;;;-0.41;92.40;92307.09;1849484;75;21095;-78
2020/12/11 03:04:36;;;;;;;41.65;25.35;;;;;;;-0.41;92.59;92311.88;1850748;77;21491;-78
2020/12/11 03:07:05;;;;;;;54.73;33.08;;;;;;;-0.38;92.66;92317.05;1833988;78;21219;-78
2020/12/11 03:09:34;;;;;;;54.30;32.25;;;;;;;-0.33;92.71;92318.89;1829394;75;21423;-78
2020/12/11 03:12:03;;;;;;;49.83;30.20;;;;;;;-0.30;92.47;92321.40;1908089;75;21077;-78
2020/12/11 03:14:31;;;;;;;47.03;27.80;;;;;;;-0.28;92.17;92323.17;1907558;75;21100;-78
2020/12/11 03:16:59;;;;;;;46.40;26.93;;;;;;;-0.31;91.87;92324.64;1886131;75;21092;-78
2020/12/11 03:19:27;;;;;;;40.60;25.05;;;;;;;-0.37;91.88;92324.73;1862738;76;22050;-79
2020/12/11 03:21:56;;;;;;;11.63;7.37;;;;;;;-0.41;92.05;92326.56;1861663;75;21127;-78
2020/12/11 03:24:24;;;;;;;6.58;5.20;;;;;;;-0.39;92.43;92328.30;1906289;74;21135;-78
2020/12/11 03:26:52;;;;;;;27.80;15.75;;;;;;;-0.38;92.49;92331.74;1907812;74;21056;-78
2020/12/11 03:29:20;;;;;;;38.58;22.37;;;;;;;-0.37;92.68;92332.74;1907761;75;21033;-78
2020/12/11 03:31:49;;;;;;;48.23;27.40;;;;;;;-0.36;92.81;92328.94;1881742;75;21038;-78
2020/12/11 03:34:18;;;;;;;46.55;27.95;;;;;;;-0.34;92.75;92332.05;1858044;77;21149;-80
2020/12/11 03:36:49;;;;;;;38.80;24.55;;;;;;;-0.36;92.67;92332.95;1844658;77;21237;-80
2020/12/11 03:39:17;;;;;;;40.63;23.83;;;;;;;-0.38;92.73;92321.83;1832183;78;21098;-80
2020/12/11 03:41:51;;;;;;;35.13;22.32;;;;;;;-0.38;92.86;92317.05;1859307;77;21177;-80
2020/12/11 03:44:20;;;;;;;50.40;31.70;;;;;;;-0.34;92.98;92325.91;1843270;77;22218;-79
2020/12/11 03:46:48;;;;;;;51.85;33.08;;;;;;;-0.31;93.03;92325.97;1814678;77;21129;-80
2020/12/11 03:49:17;;;;;;;47.98;30.32;;;;;;;-0.28;92.86;92326.61;1823974;77;21110;-78
2020/12/11 03:51:46;;;;;;;50.15;29.77;;;;;;;-0.33;92.52;92315.45;1841604;76;21120;-79
2020/12/11 03:54:14;;;;;;;42.27;25.23;;;;;;;-0.40;92.66;92319.32;1882544;76;21611;-79
2020/12/11 03:56:43;;;;;;;22.85;15.63;;;;;;;-0.42;93.06;92319.66;1819296;76;21378;-79
2020/12/11 03:59:11;;;;;;;22.13;13.62;;;;;;;-0.41;93.03;92313.78;1811770;78;21068;-79
2020/12/11 04:01:39;;;;;;;13.45;8.13;;;;;;;-0.41;93.00;92312.44;1849659;75;21078;-79
2020/12/11 04:04:08;;;;;;;17.32;9.43;;;;;;;-0.45;92.92;92316.38;1871847;75;21062;-79
2020/12/11 04:06:36;;;;;;;14.87;9.38;;;;;;;-0.51;93.04;92311.87;1907637;75;21100;-79
2020/12/11 04:09:04;;;;;;;12.50;7.75;;;;;;;-0.53;93.30;92316.80;1907998;75;21131;-79
2020/12/11 04:11:35;;;;;;;9.00;5.60;;;;;;;-0.52;93.60;92314.34;1907196;75;21072;-80
2020/12/11 04:14:04;;;;;;;6.97;4.83;;;;;;;-0.45;93.94;92316.38;1907547;75;21044;-79
2020/12/11 04:16:33;;;;;;;74.12;30.57;;;;;;;-0.41;93.93;92315.88;1910054;75;21005;-79
2020/12/11 04:19:02;;;;;;;11.18;6.25;;;;;;;-0.38;93.83;92312.48;1901992;75;21234;-79
2020/12/11 04:21:30;;;;;;;6.17;4.87;;;;;;;-0.32;93.86;92310.31;1838504;78;21192;-79
2020/12/11 04:23:58;;;;;;;19.67;11.50;;;;;;;-0.24;93.88;92313.31;1846681;75;21113;-78
2020/12/11 04:26:26;;;;;;;61.20;35.28;;;;;;;-0.17;93.75;92310.01;1847260;77;21535;-78
2020/12/11 04:28:54;;;;;;;96.15;51.68;;;;;;;-0.17;93.42;92309.44;1839894;77;21440;-79
2020/12/11 04:31:23;;;;;;;86.45;46.58;;;;;;;-0.19;93.24;92313.59;1833834;78;21042;-79
2020/12/11 04:33:51;;;;;;;83.47;45.80;;;;;;;-0.21;93.25;92309.17;1828793;77;22055;-79
2020/12/11 04:36:20;;;;;;;77.78;44.93;;;;;;;-0.19;93.27;92308.23;1856635;77;21569;-79
2020/12/11 04:38:48;;;;;;;108.85;55.75;;;;;;;-0.18;93.24;92307.13;1826285;77;21148;-79
2020/12/11 04:41:19;;;;;;;98.27;53.23;;;;;;;-0.14;93.26;92309.30;1820941;78;21139;-79
2020/12/11 04:43:50;;;;;;;84.72;49.38;;;;;;;-0.07;93.21;92306.77;1835842;75;21479;-80
2020/12/11 04:46:18;;;;;;;79.58;46.18;;;;;;;-0.04;93.03;92300.14;1817357;77;21190;-79
2020/12/11 04:48:46;;;;;;;38.92;23.07;;;;;;;0.00;92.85;92304.22;1890315;76;21114;-79
2020/12/11 04:51:14;;;;;;;43.05;26.15;;;;;;;0.03;92.69;92310.73;1901274;74;21229;-79
2020/12/11 04:53:42;;;;;;;17.87;11.22;;;;;;;0.03;92.67;92307.48;1859923;75;21052;-79
2020/12/11 04:56:10;;;;;;;17.62;11.08;;;;;;;0.04;92.68;92306.38;1862666;76;21020;-79
2020/12/11 04:58:39;;;;;;;13.40;7.83;;;;;;;0.05;92.70;92305.81;1875880;76;21183;-79
2020/12/11 05:01:07;;;;;;;6.72;4.10;;;;;;;0.08;92.68;92307.22;1860228;77;21569;-79
2020/12/11 05:03:36;;;;;;;3.52;2.72;;;;;;;0.09;92.46;92307.41;1861362;77;21127;-78
2020/12/11 05:06:04;;;;;;;3.10;2.85;;;;;;;0.06;92.26;92302.78;1861648;77;21032;-79
2020/12/11 05:08:33;;;;;;;4.67;2.87;;;;;;;0.03;92.41;92302.14;1861508;77;21036;-79
2020/12/11 05:11:02;;;;;;;2.50;2.02;;;;;;;0.05;92.56;92305.81;1855378;77;21178;-79
2020/12/11 05:13:30;;;;;;;4.47;3.47;;;;;;;0.05;92.41;92308.48;1850612;77;21063;-80
2020/12/11 05:15:59;;;;;;;1.67;1.57;;;;;;;0.03;92.38;92301.38;1861171;77;21107;-79
2020/12/11 05:18:27;;;;;;;14.28;8.38;;;;;;;0.01;92.51;92304.42;1856503;77;21055;-79
2020/12/11 05:20:56;;;;;;;30.43;21.68;;;;;;;0.05;92.79;92304.48;1847008;77;21488;-80
2020/12/11 05:23:24;;;;;;;9.53;6.72;;;;;;;0.07;92.70;92302.97;1795437;77;21201;-79
2020/12/11 05:25:53;;;;;;;3.92;3.08;;;;;;;0.09;92.68;92303.41;1864525;75;21169;-80
2020/12/11 05:28:21;;;;;;;1.57;1.47;;;;;;;0.09;92.66;92298.06;1817423;78;21046;-79
2020/12/11 05:30:50;;;;;;;1.95;1.80;;;;;;;0.12;92.77;92299.26;1812410;79;21070;-79
2020/12/11 05:33:18;;;;;;;2.95;1.60;;;;;;;0.17;92.77;92296.28;1832500;77;21623;-80
2020/12/11 05:35:46;;;;;;;1.82;1.30;;;;;;;0.20;92.73;92293.66;1838155;77;21567;-79
2020/12/11 05:38:15;;;;;;;1.67;1.57;;;;;;;0.23;92.58;92293.52;1818831;76;21196;-79
2020/12/11 05:40:44;;;;;;;1.67;1.57;;;;;;;0.23;92.33;92302.31;1864380;76;21189;-80
2020/12/11 05:43:19;;;;;;;2.30;1.80;;;;;;;0.22;92.38;92293.30;1837837;77;21157;-80
2020/12/11 05:45:57;;;;;;;2.22;1.70;;;;;;;0.22;92.40;92294.63;1832367;78;21184;-79
2020/12/11 05:48:39;;;;;;;2.90;2.55;;;;;;;0.20;92.27;92292.33;1832121;77;22165;-79
2020/12/11 05:51:14;;;;;;;4.05;3.60;;;;;;;0.17;92.15;92288.25;1832043;78;21137;-79
2020/12/11 05:53:42;;;;;;;;;;;;;;;0.14;92.25;92286.29;1835317;77;21145;-79
2020/12/11 05:56:10;;;;;;;6.37;5.28;;;;;;;0.13;92.29;92288.20;1837481;77;20535;-79
2020/12/11 05:58:39;;;;;;;4.80;4.00;;;;;;;0.10;92.28;92282.79;1829222;77;21149;-79
2020/12/11 06:01:07;;;;;;;3.75;2.75;;;;;;;0.11;92.56;92283.76;1791048;79;22527;-79
2020/12/11 06:03:35;;;;;;;5.30;4.28;;;;;;;0.15;92.56;92291.84;1831060;78;21196;-79
2020/12/11 06:06:03;;;;;;;36.75;24.65;;;;;;;0.14;92.43;92289.73;1817791;78;21131;-78
2020/12/11 06:08:31;;;;;;;42.53;24.90;;;;;;;0.15;92.41;92291.84;1835765;76;21022;-79
2020/12/11 06:11:00;;;;;;;15.28;10.75;;;;;;;0.17;92.34;92291.70;1821614;76;21179;-79
2020/12/11 06:13:42;;;;;;;7.37;4.42;;;;;;;0.15;92.12;92293.17;1868368;75;21594;-79
2020/12/11 06:16:10;;;;;;;15.00;9.70;;;;;;;0.11;92.13;92291.78;1861054;76;21059;-78
2020/12/11 06:18:38;;;;;;;16.30;10.05;;;;;;;0.10;92.33;92293.48;1882013;75;21045;-79
2020/12/11 06:21:06;;;;;;;5.83;5.12;;;;;;;0.10;92.40;92299.59;1839903;77;21096;-79
2020/12/11 06:23:35;;;;;;;2.92;2.50;;;;;;;0.12;92.54;92301.36;1854774;76;21611;-79
2020/12/11 06:26:04;;;;;;;2.80;2.40;;;;;;;0.11;92.35;92297.13;1819982;75;21680;-79
2020/12/11 06:28:42;;;;;;;2.02;1.92;;;;;;;0.07;92.34;92299.53;1861624;74;21109;-79
2020/12/11 06:31:16;;;;;;;2.00;1.90;;;;;;;0.05;92.65;92306.59;1851158;77;21534;-79
2020/12/11 06:33:47;;;;;;;70.87;22.52;;;;;;;0.09;92.85;92306.64;1896715;75;21146;-79
2020/12/11 06:36:15;;;;;;;26.05;12.07;;;;;;;0.09;92.64;92307.98;1886601;75;21150;-79
2020/12/11 06:38:52;;;;;;;50.40;19.48;;;;;;;0.07;92.48;92311.56;1876970;75;21181;-79
2020/12/11 06:41:39;;;;;;;30.95;25.72;;;;;;;0.02;92.37;92307.29;1856655;77;21026;-80
2020/12/11 06:44:14;;;;;;;31.62;25.17;;;;;;;-0.01;92.44;92308.77;1813108;77;21616;-79
2020/12/11 06:46:42;;;;;;;23.95;19.60;;;;;;;-0.01;92.51;92306.66;1808444;79;21046;-79
2020/12/11 06:49:19;;;;;;;15.35;12.37;;;;;;;-0.06;92.53;92300.28;1790875;79;21056;-80
2020/12/11 06:51:53;;;;;;;31.02;21.55;;;;;;;-0.08;92.68;92292.60;1869391;74;21199;-79
2020/12/11 06:54:27;;;;;;;40.75;25.25;;;;;;;-0.08;92.90;92300.62;1887647;75;21145;-79
2020/12/11 06:56:59;;;;;;;46.15;29.45;;;;;;;-0.09;92.96;92296.98;1874159;75;21157;-79
2020/12/11 06:59:39;;;;;;;73.57;42.35;;;;;;;-0.07;93.12;92298.17;1784097;78;21180;-79
2020/12/11 07:02:16;;;;;;;85.05;46.10;;;;;;;-0.06;93.12;92301.62;1787844;79;21200;-80
2020/12/11 07:04:51;;;;;;;224.73;110.90;;;;;;;-0.07;93.08;92298.74;1802810;78;21984;-80
2020/12/11 07:07:22;;;;;;;100.53;55.70;;;;;;;-0.07;93.18;92295.50;1848159;77;21112;-79
2020/12/11 07:09:55;;;;;;;87.37;48.00;;;;;;;-0.04;93.24;92294.80;1807352;76;21154;-79
2020/12/11 07:12:20;;;;;;;91.80;50.33;;;;;;;-0.02;93.13;92291.76;1817894;78;21058;-79
2020/12/11 07:14:49;;;;;;;88.55;51.37;;;;;;;-0.03;93.01;92290.99;1884285;75;21153;-79
2020/12/11 07:17:28;;;;;;;80.05;44.35;;;;;;;-0.02;93.04;92295.77;1851938;76;22108;-79
2020/12/11 07:19:59;;;;;;;74.60;42.80;;;;;;;-0.03;93.12;92288.31;1826852;75;21179;-79
2020/12/11 07:22:31;;;;;;;190.12;98.45;;;;;;;0.01;93.24;92295.63;1873848;75;21183;-78
2020/12/11 07:25:00;;;;;;;63.05;40.23;;;;;;;0.04;93.25;92295.69;1782808;77;21017;-79
2020/12/11 07:27:28;;;;;;;78.65;48.20;;;;;;;0.10;93.31;92294.81;1818937;77;21179;-79
2020/12/11 07:29:56;;;;;;;64.82;43.23;;;;;;;0.16;93.12;92298.18;1853203;75;21178;-79
2020/12/11 07:32:24;;;;;;;21.23;13.10;;;;;;;0.20;93.00;92298.23;1858436;76;21228;-79
2020/12/11 07:34:53;;;;;;;17.65;11.57;;;;;;;0.21;92.85;92293.09;1874314;76;21114;-79
2020/12/11 07:37:21;;;;;;;3.85;3.37;;;;;;;0.20;92.85;92289.66;1834067;78;21164;-79
2020/12/11 07:39:50;;;;;;;6.30;4.97;;;;;;;0.20;92.71;92287.55;1844626;77;37934;-79
2020/12/11 07:42:24;;;;;;;5.90;4.78;;;;;;;0.14;92.80;92285.72;1836064;77;21605;-79
2020/12/11 07:44:52;;;;;;;3.70;3.37;;;;;;;0.17;92.87;92292.27;1810435;78;21120;-79
2020/12/11 07:47:20;;;;;;;6.12;3.65;;;;;;;0.13;92.83;92294.87;1793794;77;21710;-79
2020/12/11 07:49:49;;;;;;;2.35;2.15;;;;;;;0.14;93.07;92297.75;1880329;76;21640;-79
2020/12/11 07:52:22;;;;;;;2.58;2.37;;;;;;;0.11;93.12;92295.78;1830569;76;21251;-78
2020/12/11 07:54:47;;;;;;;3.62;2.47;;;;;;;0.15;93.37;92299.86;1805898;78;21668;-79
2020/12/11 07:57:20;;;;;;;37.10;25.70;;;;;;;0.19;93.39;92296.70;1835612;78;21177;-79
2020/12/11 08:00:07;;;;;;;29.85;20.12;;;;;;;0.22;93.38;92295.40;1825070;78;21181;-80
2020/12/11 08:02:35;;;;;;;13.13;7.62;;;;;;;0.28;93.39;92298.56;1827099;78;21150;-78
2020/12/11 08:05:07;;;;;;;5.90;4.58;;;;;;;0.34;93.33;92301.16;1832276;76;21041;-79
2020/12/11 08:07:35;;;;;;;4.28;3.00;;;;;;;0.37;93.10;92288.95;1886606;76;22470;-79
2020/12/11 08:10:16;;;;;;;2.02;1.92;;;;;;;0.33;92.73;92291.56;1857195;76;21134;-79
2020/12/11 08:12:44;;;;;;;1.77;1.60;;;;;;;0.21;92.62;92293.09;1859201;77;21160;-79
2020/12/11 08:15:31;;;;;;;2.27;2.08;;;;;;;0.10;92.79;92297.48;1841161;76;21149;-79
2020/12/11 08:18:20;;;;;;;1.98;1.57;;;;;;;0.00;93.07;92300.20;1834077;77;21179;-79
2020/12/11 08:20:57;;;;;;;1.95;1.85;;;;;;;-0.05;93.44;92301.81;1834194;77;21360;-80
2020/12/11 08:23:43;;;;;;;2.22;1.55;;;;;;;-0.04;93.84;92296.67;1795188;77;21251;-80
2020/12/11 08:26:16;;;;;;;16.85;10.95;;;;;;;0.00;94.18;92290.86;1889382;75;21098;-80
2020/12/11 08:28:47;;;;;;;14.90;9.48;;;;;;;0.07;94.33;92290.95;1830134;78;21169;-80
2020/12/11 08:31:26;;;;;;;5.65;3.95;;;;;;;0.13;94.30;92297.55;1874924;76;21087;-80
2020/12/11 08:34:09;;;;;;;4.30;3.27;;;;;;;0.19;94.31;92291.36;1888401;75;21592;-79
2020/12/11 08:36:45;;;;;;;4.28;3.27;;;;;;;0.27;94.32;92289.57;1860630;76;21125;-80
2020/12/11 08:39:20;;;;;;;3.15;2.67;;;;;;;0.37;94.22;92288.95;1852996;76;21122;-80
2020/12/11 08:42:11;;;;;;;2.08;1.92;;;;;;;0.42;93.86;92294.78;1852876;75;21093;-80
2020/12/11 08:45:02;;;;;;;;;;;;;;;;;;;;;
2020/12/11 08:52:26;;;;;;;4.10;3.35;;;;;;;0.61;93.83;92291.25;1848225;77;21853;-81
2020/12/11 08:54:55;;;;;;;2.40;2.30;;;;;;;0.71;93.62;92298.66;1859922;75;21601;-81
2020/12/11 08:57:28;;;;;;;1.72;1.62;;;;;;;0.78;93.43;92289.94;1889475;75;21621;-79
2020/12/11 08:59:53;;;;;;;1.27;1.27;;;;;;;0.84;93.17;92287.75;1861652;76;21188;-79
2020/12/11 09:02:22;;;;;;;1.37;1.30;;;;;;;0.81;92.74;92287.89;1865790;75;21148;-78
2020/12/11 09:04:50;;;;;;;1.30;1.20;;;;;;;0.79;92.78;92287.50;1906846;75;21137;-79
2020/12/11 09:07:20;;;;;;;1.25;1.07;;;;;;;0.83;93.04;92287.52;1906130;75;21136;-80
2020/12/11 09:09:49;;;;;;;0.95;0.95;;;;;;;0.86;92.98;92285.47;1859235;75;21159;-80
2020/12/11 09:12:18;;;;;;;1.02;1.02;;;;;;;0.87;92.96;92284.35;1840583;76;21193;-79
2020/12/11 09:14:46;;;;;;;1.82;0.70;;;;;;;0.92;93.15;92281.35;1858250;75;21216;-80
2020/12/11 09:17:14;;;;;;;3.30;3.00;;;;;;;1.01;93.37;92279.16;1903701;75;21722;-80
2020/12/11 09:19:42;;;;;;;4.83;3.92;;;;;;;1.09;93.33;92280.03;1880254;75;21239;-79
2020/12/11 09:22:11;;;;;;;13.08;6.67;;;;;;;1.17;93.03;92282.45;1878484;76;21203;-80
2020/12/11 09:24:39;;;;;;;22.55;14.75;;;;;;;1.18;92.69;92270.60;1866087;76;21197;-80
2020/12/11 09:27:08;;;;;;;41.18;28.25;;;;;;;1.19;92.59;92269.45;1823513;77;21166;-80
2020/12/11 09:32:12;;;;;;;40.50;29.27;;;;;;;1.24;92.47;92264.34;1888324;76;22348;-81
2020/12/11 09:34:38;;;;;;;35.40;24.37;;;;;;;1.25;92.64;92268.59;1828840;77;21127;-76
2020/12/11 09:37:06;;;;;;;36.25;22.75;;;;;;;1.31;92.62;92273.03;1825000;78;21709;-79
2020/12/11 09:39:34;;;;;;;32.38;19.87;;;;;;;1.38;92.53;92269.11;1824743;78;21586;-80
2020/12/11 09:53:03;;;;;;;11.22;7.33;;;;;;;1.25;92.92;92261.89;1839679;77;21119;-78
2020/12/11 09:55:30;;;;;;;19.45;11.88;;;;;;;1.31;92.98;92266.34;1834417;78;21189;-81
2020/12/11 09:57:54;;;;;;;31.33;20.72;;;;;;;1.35;93.21;92270.59;1837422;78;21116;-79
2020/12/11 10:00:23;;;;;;;18.27;11.45;;;;;;;1.41;93.21;92263.03;1823011;78;21152;-80
2020/12/11 10:03:30;;;;;;;14.40;9.05;;;;;;;1.48;93.07;92263.11;1848777;77;21485;-80
2020/12/11 10:05:27;;;;;;;15.08;9.73;;;;;;;1.49;92.64;92258.52;1819654;78;21168;-79
2020/12/11 10:07:56;;;;;;;16.02;10.30;;;;;;;1.47;92.87;92248.18;1850155;77;21186;-77
2020/12/11 10:10:24;;;;;;;37.45;21.48;;;;;;;1.51;93.10;92250.33;1799563;78;21203;-81
2020/12/11 10:12:52;;;;;;;37.90;23.77;;;;;;;1.54;93.07;92241.53;1793145;79;21610;-78
2020/12/11 10:15:22;;;;;;;32.98;21.42;;;;;;;1.62;93.14;92242.41;1796936;79;21209;-82
2020/12/11 10:17:50;;;;;;;31.52;22.32;;;;;;;1.67;93.04;92240.73;1785247;80;21216;-80
2020/12/11 10:20:19;;;;;;;23.90;17.62;;;;;;;1.73;93.01;92236.59;1815785;78;21192;-81
2020/12/11 10:22:48;;;;;;;63.00;38.23;;;;;;;1.81;93.07;92237.42;1853296;76;21626;-79
2020/12/11 10:25:17;;;;;;;34.15;21.77;;;;;;;1.91;93.17;92244.78;1818865;77;21184;-79
2020/12/11 10:27:47;;;;;;;22.65;14.70;;;;;;;1.97;92.76;92239.86;1780355;79;22419;-81
2020/12/11 10:30:15;;;;;;;7.70;5.65;;;;;;;1.98;92.35;92237.38;1777191;80;21691;-80
2020/12/11 10:32:45;;;;;;;6.10;4.83;;;;;;;1.87;92.01;92236.70;1778099;80;21212;-79
2020/12/11 10:35:14;;;;;;;8.88;6.90;;;;;;;1.82;92.40;92234.36;1794769;79;21180;-79
2020/12/11 10:37:42;;;;;;;8.25;6.03;;;;;;;1.83;92.69;92230.54;1816318;78;21156;-80
2020/12/11 10:40:13;;;;;;;7.55;5.90;;;;;;;1.85;92.96;92224.83;1846493;77;21249;-81
2020/12/11 10:42:41;;;;;;;7.70;5.55;;;;;;;1.86;92.93;92219.66;1834275;77;21127;-78
2020/12/11 10:45:09;;;;;;;37.48;27.73;;;;;;;1.85;93.18;92212.77;1858389;77;21124;-78
2020/12/11 10:47:37;;;;;;;23.90;15.88;;;;;;;1.85;93.30;92216.78;1808775;78;21615;-77
2020/12/11 10:50:06;;;;;;;10.90;8.05;;;;;;;1.89;93.28;92205.52;1866366;76;21141;-78
2020/12/11 10:52:35;;;;;;;5.50;4.83;;;;;;;1.89;93.10;92206.28;1873336;76;21176;-78
2020/12/11 10:55:03;;;;;;;6.42;4.15;;;;;;;1.84;93.11;92209.86;1861653;76;21620;-79
2020/12/11 10:57:31;;;;;;;5.33;4.40;;;;;;;1.85;93.64;92206.06;1846735;76;21279;-78
2020/12/11 10:59:59;;;;;;;7.78;5.58;;;;;;;1.92;94.16;92196.17;1851299;77;21612;-80
2020/12/11 11:02:27;;;;;;;7.30;4.50;;;;;;;2.05;94.68;92204.69;1815439;77;21691;-80
2020/12/11 11:04:56;;;;;;;15.93;9.58;;;;;;;2.19;94.93;92203.47;1816176;79;21239;-78
2020/12/11 11:07:28;;;;;;;13.18;8.38;;;;;;;2.25;94.62;92211.92;1815033;79;21610;-78
2020/12/11 11:10:13;;;;;;;18.92;10.03;;;;;;;2.31;94.36;92201.64;1812314;79;21722;-82
2020/12/11 11:12:28;;;;;;;25.82;17.20;;;;;;;2.34;94.11;92197.64;1809460;79;21618;-80
2020/12/11 11:20:46;;;;;;;19.50;12.65;;;;;;;2.46;93.61;92192.54;1825538;78;20788;-82
2020/12/11 11:23:38;;;;;;;41.30;28.70;;;;;;;2.49;93.37;92181.64;1814273;78;21147;-78
2020/12/11 11:26:18;;;;;;;45.65;31.15;;;;;;;2.49;93.25;92183.75;1834434;77;21170;-77
2020/12/11 11:28:40;;;;;;;32.33;24.35;;;;;;;2.54;93.24;92178.59;1802832;77;21168;-79
2020/12/11 11:31:12;;;;;;;32.58;22.37;;;;;;;2.60;93.24;92171.16;1781290;79;21210;-78
2020/12/11 11:33:40;;;;;;;32.25;23.05;;;;;;;2.65;93.17;92170.03;1814623;78;21131;-78
2020/12/11 11:36:10;;;;;;;37.83;28.30;;;;;;;2.72;93.15;92170.08;1803607;79;21862;-78
2020/12/11 11:38:39;;;;;;;42.90;32.73;;;;;;;2.75;93.11;92172.02;1836148;78;21611;-77
2020/12/11 11:41:07;;;;;;;48.38;37.17;;;;;;;2.79;93.04;92166.66;1850096;77;21653;-79
2020/12/11 11:43:59;;;;;;;46.85;34.03;;;;;;;2.82;92.84;92168.57;1840255;77;21681;-84
2020/12/11 11:46:11;;;;;;;42.48;30.17;;;;;;;2.85;92.66;92167.83;1798670;78;21205;-80
2020/12/11 11:48:42;;;;;;;38.95;31.20;;;;;;;2.88;92.54;92163.05;1772207;80;21183;-80
2020/12/11 11:51:20;;;;;;;37.53;26.07;;;;;;;2.92;92.46;92155.78;1809528;79;21223;-82
2020/12/11 11:53:42;;;;;;;28.15;21.10;;;;;;;2.94;92.37;92148.13;1834815;78;21179;-79
2020/12/11 11:56:10;;;;;;;32.65;23.12;;;;;;;2.97;92.44;92143.34;1800124;78;21210;-82
2020/12/11 11:58:38;;;;;;;40.10;27.80;;;;;;;3.00;92.38;92139.88;1838190;76;21140;-78
2020/12/11 12:01:06;;;;;;;49.85;31.77;;;;;;;3.01;92.21;92137.97;1802306;79;21162;-80
2020/12/11 12:03:35;;;;;;;56.08;35.98;;;;;;;3.01;92.23;92133.94;1801254;79;21200;-79
2020/12/11 12:06:05;;;;;;;64.62;46.88;;;;;;;3.02;92.20;92133.58;1770708;80;21188;-80